Time;durP1;ratioP1;P1;durP2;ratioP2;P2;SDS_P1;SDS_P2;PMS_P1;PMS_P2;Temp;Humidity;BMP_temperature;BMP_pressure;BME280_temperature;BME280_humidity;BME280_pressure;Samples;Min_cycle;Max_cycle;Signal;HPM_P1;HPM_P2
2021/05/29 00:01:52;;;;;;;2.53;1.40;;;;;;;11.86;nan;101096.75;5079279;28;20038;-76
2021/05/29 00:04:17;;;;;;;2.72;1.40;;;;;;;11.81;nan;101097.19;5080603;28;20040;-76
2021/05/29 00:06:43;;;;;;;2.03;1.63;;;;;;;11.79;nan;101103.63;5080013;28;20079;-76
2021/05/29 00:09:08;;;;;;;2.10;1.20;;;;;;;11.74;nan;101101.41;5084983;28;20036;-76
2021/05/29 00:11:34;;;;;;;4.13;1.65;;;;;;;11.86;nan;101108.19;5074588;28;20467;-76
2021/05/29 00:13:59;;;;;;;4.72;1.90;;;;;;;11.78;nan;101104.63;5092079;28;20520;-76
2021/05/29 00:16:25;;;;;;;3.25;1.58;;;;;;;11.76;nan;101101.28;5088605;28;20036;-76
2021/05/29 00:18:50;;;;;;;3.13;1.85;;;;;;;11.71;nan;101101.72;5070408;28;20028;-76
2021/05/29 00:21:16;;;;;;;2.20;1.40;;;;;;;11.70;nan;101102.66;5070440;28;20401;-76
2021/05/29 00:23:41;;;;;;;3.03;1.60;;;;;;;11.67;nan;101097.66;5087454;28;20255;-76
2021/05/29 00:26:07;;;;;;;2.03;1.30;;;;;;;11.67;nan;101102.97;5066817;28;20036;-76
2021/05/29 00:28:32;;;;;;;2.75;1.30;;;;;;;11.60;nan;101104.53;5070730;28;20035;-76
2021/05/29 00:30:58;;;;;;;1.52;1.13;;;;;;;11.56;nan;101106.66;5060938;28;20032;-76
2021/05/29 00:33:23;;;;;;;2.75;1.70;;;;;;;11.57;nan;101110.94;5086205;28;20117;-76
2021/05/29 00:35:48;;;;;;;4.30;1.67;;;;;;;11.53;nan;101104.25;5091857;28;20044;-77
2021/05/29 00:38:14;;;;;;;2.83;1.70;;;;;;;11.42;nan;101109.75;5073845;28;20039;-76
2021/05/29 00:40:39;;;;;;;2.67;1.63;;;;;;;11.42;nan;101117.69;5074551;28;20040;-76
2021/05/29 00:43:05;;;;;;;2.00;1.70;;;;;;;11.37;nan;101119.91;5089373;28;20036;-76
2021/05/29 00:45:31;;;;;;;2.80;1.77;;;;;;;11.36;nan;101116.44;5080689;28;20035;-76
2021/05/29 00:47:59;;;;;;;2.40;1.55;;;;;;;11.35;nan;101121.88;5076384;28;20497;-76
2021/05/29 00:50:24;;;;;;;2.75;1.50;;;;;;;11.26;nan;101113.81;5089269;28;20047;-76
2021/05/29 00:52:50;;;;;;;3.50;1.88;;;;;;;11.31;nan;101120.50;5089345;28;20377;-76
2021/05/29 00:55:16;;;;;;;2.97;1.80;;;;;;;11.30;nan;101116.16;5088694;28;20157;-77
2021/05/29 00:57:47;;;;;;;2.30;1.48;;;;;;;11.23;nan;101108.81;5070141;28;20595;-76
2021/05/29 01:00:18;;;;;;;2.67;1.40;;;;;;;11.17;nan;101109.34;5043986;28;20342;-76
2021/05/29 01:02:44;;;;;;;1.83;1.40;;;;;;;11.13;nan;101101.84;5091414;28;20052;-76
2021/05/29 01:05:13;;;;;;;2.47;1.40;;;;;;;11.12;nan;101106.28;5076513;28;20036;-76
2021/05/29 01:07:38;;;;;;;2.55;1.33;;;;;;;11.08;nan;101107.53;5068419;28;20041;-76
2021/05/29 01:10:06;;;;;;;3.38;1.55;;;;;;;11.16;nan;101107.69;5043883;28;20052;-76
2021/05/29 01:12:32;;;;;;;2.67;1.65;;;;;;;11.06;nan;101109.53;5090331;28;20040;-76
2021/05/29 01:14:59;;;;;;;2.47;1.77;;;;;;;10.98;nan;101106.72;5083123;28;20504;-76
2021/05/29 01:17:26;;;;;;;2.70;1.55;;;;;;;11.03;nan;101112.44;5073347;28;20043;-76
2021/05/29 01:19:52;;;;;;;2.92;1.70;;;;;;;11.01;nan;101109.09;5079797;28;20029;-76
2021/05/29 01:22:39;;;;;;;3.35;1.83;;;;;;;10.98;nan;101109.38;5089643;28;20039;-78
2021/05/29 01:25:32;;;;;;;2.97;1.90;;;;;;;10.97;nan;101105.06;5079761;28;20393;-76
2021/05/29 01:28:10;;;;;;;3.80;1.67;;;;;;;10.90;nan;101104.78;5065562;28;20040;-76
2021/05/29 01:30:47;;;;;;;2.47;1.60;;;;;;;10.91;nan;101098.50;5103432;28;20046;-76
2021/05/29 01:33:16;;;;;;;2.28;1.60;;;;;;;10.83;nan;101101.03;5081480;28;20041;-77
2021/05/29 01:35:43;;;;;;;4.18;1.80;;;;;;;10.82;nan;101108.13;5068472;28;20089;-76
2021/05/29 01:38:08;;;;;;;3.42;1.92;;;;;;;10.76;nan;101113.97;5072660;28;20512;-76
2021/05/29 01:40:34;;;;;;;3.13;1.70;;;;;;;10.74;nan;101110.63;5082356;28;20036;-76
2021/05/29 01:43:02;;;;;;;2.75;1.80;;;;;;;10.79;nan;101113.69;5076765;28;20034;-76
2021/05/29 01:45:28;;;;;;;2.88;1.67;;;;;;;10.79;nan;101113.69;5091948;28;20100;-76
2021/05/29 01:47:54;;;;;;;3.38;1.60;;;;;;;10.82;nan;101109.91;5090727;28;20693;-76
2021/05/29 01:50:20;;;;;;;3.85;1.73;;;;;;;10.87;nan;101117.44;5074351;28;20036;-76
2021/05/29 01:52:48;;;;;;;4.63;1.80;;;;;;;10.84;nan;101111.47;5078903;28;20044;-76
2021/05/29 01:55:15;;;;;;;3.88;1.77;;;;;;;10.87;nan;101114.81;5090626;28;20032;-76
2021/05/29 01:57:40;;;;;;;3.92;1.50;;;;;;;10.88;nan;101108.56;5086586;28;20036;-76
2021/05/29 02:00:06;;;;;;;3.70;1.80;;;;;;;10.94;nan;101114.13;5080965;28;20094;-76
2021/05/29 02:02:33;;;;;;;2.28;1.73;;;;;;;10.97;nan;101110.38;5057750;28;20464;-75
2021/05/29 02:04:58;;;;;;;2.85;1.50;;;;;;;10.98;nan;101112.84;5073206;28;20060;-76
2021/05/29 02:07:24;;;;;;;3.65;1.67;;;;;;;11.02;nan;101110.78;5078681;28;20405;-76
2021/05/29 02:09:49;;;;;;;4.90;1.88;;;;;;;11.12;nan;101113.41;5084076;28;20165;-77
2021/05/29 02:12:15;;;;;;;3.88;1.88;;;;;;;11.11;nan;101114.38;5060345;28;20041;-76
2021/05/29 02:14:42;;;;;;;3.03;1.70;;;;;;;11.12;nan;101116.88;5079080;28;20122;-76
2021/05/29 02:17:07;;;;;;;2.38;1.60;;;;;;;11.08;nan;101117.31;5072757;28;20409;-76
2021/05/29 02:19:32;;;;;;;4.00;1.80;;;;;;;11.21;nan;101112.56;5078120;28;20029;-76
2021/05/29 02:21:58;;;;;;;8.40;1.60;;;;;;;11.20;nan;101117.03;5069293;28;20025;-77
2021/05/29 02:24:23;;;;;;;3.53;1.65;;;;;;;11.09;nan;101111.88;5084398;28;20055;-76
2021/05/29 02:26:48;;;;;;;2.78;1.90;;;;;;;11.15;nan;101113.94;5091087;28;20040;-77
2021/05/29 02:29:13;;;;;;;1.73;1.23;;;;;;;11.10;nan;101118.84;5088920;28;20055;-77
2021/05/29 02:31:39;;;;;;;2.90;1.60;;;;;;;11.08;nan;101118.13;5079263;28;20052;-77
2021/05/29 02:34:04;;;;;;;2.88;1.50;;;;;;;11.07;nan;101111.19;5087752;28;20047;-77
2021/05/29 02:36:29;;;;;;;2.10;1.30;;;;;;;11.03;nan;101107.13;5082025;28;20032;-76
2021/05/29 02:38:55;;;;;;;3.72;1.70;;;;;;;11.03;nan;101110.59;5080904;28;20405;-76
2021/05/29 02:41:20;;;;;;;3.22;1.30;;;;;;;10.95;nan;101107.84;5089975;28;20050;-76
2021/05/29 02:43:45;;;;;;;2.03;1.40;;;;;;;10.97;nan;101108.53;5079595;28;20048;-76
2021/05/29 02:46:11;;;;;;;4.50;1.45;;;;;;;10.97;nan;101107.72;5069670;28;20040;-76
2021/05/29 02:48:37;;;;;;;2.33;1.50;;;;;;;11.05;nan;101108.66;5063131;28;20135;-76
2021/05/29 02:51:02;;;;;;;3.53;1.60;;;;;;;11.03;nan;101115.06;5088532;28;20059;-76
2021/05/29 02:53:28;;;;;;;2.67;1.70;;;;;;;11.04;nan;101111.47;5058543;28;20501;-76
2021/05/29 02:55:53;;;;;;;2.30;1.38;;;;;;;11.03;nan;101107.13;5068010;28;20530;-76
2021/05/29 02:58:18;;;;;;;2.47;1.48;;;;;;;11.08;nan;101114.66;5061753;28;20055;-77
2021/05/29 03:00:47;;;;;;;2.85;1.25;;;;;;;11.05;nan;101110.47;5084473;28;20035;-77
2021/05/29 03:03:13;;;;;;;2.72;1.58;;;;;;;11.05;nan;101111.31;5071736;28;20028;-77
2021/05/29 03:05:45;;;;;;;1.83;1.35;;;;;;;11.13;nan;101115.06;5071833;28;20039;-76
2021/05/29 03:08:13;;;;;;;2.67;1.35;;;;;;;11.08;nan;101118.13;5090176;28;20067;-77
2021/05/29 03:10:40;;;;;;;3.60;1.50;;;;;;;11.03;nan;101109.78;5090784;28;20089;-76
2021/05/29 03:13:07;;;;;;;4.03;1.40;;;;;;;11.07;nan;101113.81;5080504;28;20520;-76
2021/05/29 03:15:33;;;;;;;2.75;1.30;;;;;;;11.02;nan;101113.41;5074990;28;20521;-77
2021/05/29 03:17:59;;;;;;;2.58;1.50;;;;;;;10.96;nan;101119.25;5086058;28;20044;-76
2021/05/29 03:20:26;;;;;;;1.50;1.25;;;;;;;10.93;nan;101111.59;5089521;28;20066;-76
2021/05/29 03:22:52;;;;;;;1.98;1.40;;;;;;;10.96;nan;101122.72;5055215;28;20028;-76
2021/05/29 03:25:18;;;;;;;5.15;1.35;;;;;;;10.95;nan;101125.53;5068861;28;20093;-76
2021/05/29 03:27:47;;;;;;;5.10;1.50;;;;;;;10.95;nan;101128.19;5069375;28;20370;-76
2021/05/29 03:30:15;;;;;;;1.88;1.25;;;;;;;10.91;nan;101140.00;5066768;28;20064;-76
2021/05/29 03:32:41;;;;;;;2.47;1.58;;;;;;;10.87;nan;101138.59;5070122;28;20044;-76
2021/05/29 03:35:08;;;;;;;2.85;1.38;;;;;;;10.83;nan;101144.19;5072234;28;20119;-76
2021/05/29 03:37:33;;;;;;;3.45;1.40;;;;;;;10.77;nan;101138.59;5064154;28;20202;-77
2021/05/29 03:39:58;;;;;;;2.15;1.40;;;;;;;10.74;nan;101139.72;5086040;28;20055;-77
2021/05/29 03:42:24;;;;;;;3.05;1.45;;;;;;;10.77;nan;101139.47;5076121;28;20083;-76
2021/05/29 03:44:49;;;;;;;2.30;1.23;;;;;;;10.73;nan;101140.72;5086747;28;20112;-77
2021/05/29 03:47:15;;;;;;;2.70;1.40;;;;;;;10.79;nan;101142.78;5073112;28;20033;-75
2021/05/29 03:49:40;;;;;;;2.08;1.23;;;;;;;10.82;nan;101141.66;5064221;28;20121;-76
2021/05/29 03:52:07;;;;;;;1.65;1.17;;;;;;;10.82;nan;101139.88;5081412;28;20431;-77
2021/05/29 03:54:32;;;;;;;3.65;1.10;;;;;;;10.87;nan;101134.19;5090044;28;20046;-77
2021/05/29 03:56:58;;;;;;;1.67;1.30;;;;;;;10.80;nan;101144.47;5070844;28;20032;-76
2021/05/29 03:59:23;;;;;;;1.55;1.10;;;;;;;10.82;nan;101142.53;5087922;28;20408;-76
2021/05/29 04:01:48;;;;;;;1.60;1.25;;;;;;;10.83;nan;101149.47;5066810;28;20040;-76
2021/05/29 04:04:14;;;;;;;1.95;1.20;;;;;;;10.81;nan;101138.19;5088861;28;20119;-76
2021/05/29 04:06:39;;;;;;;3.75;1.58;;;;;;;10.72;nan;101143.47;5073034;28;20028;-76
2021/05/29 04:09:07;;;;;;;2.75;1.40;;;;;;;10.74;nan;101149.47;5084817;28;20503;-76
2021/05/29 04:11:33;;;;;;;3.42;1.60;;;;;;;10.79;nan;101152.53;5090534;28;20477;-76
2021/05/29 04:13:59;;;;;;;2.33;1.48;;;;;;;10.76;nan;101151.00;5081248;28;20058;-76
2021/05/29 04:16:24;;;;;;;2.28;1.30;;;;;;;10.77;nan;101152.69;5086243;28;20332;-76
2021/05/29 04:18:50;;;;;;;2.70;1.65;;;;;;;10.78;nan;101157.00;5081260;28;20033;-76
2021/05/29 04:21:15;;;;;;;2.75;1.40;;;;;;;10.72;nan;101144.31;5086265;28;20028;-76
2021/05/29 04:23:41;;;;;;;3.67;1.45;;;;;;;10.78;nan;101145.59;5087423;28;20024;-76
2021/05/29 04:26:07;;;;;;;2.88;1.27;;;;;;;10.78;nan;101148.22;5089190;28;20028;-76
2021/05/29 04:28:34;;;;;;;2.10;1.20;;;;;;;10.79;nan;101149.88;5081092;28;20043;-76
2021/05/29 04:30:59;;;;;;;1.73;1.00;;;;;;;10.75;nan;101149.34;5073833;28;20405;-76
2021/05/29 04:33:25;;;;;;;1.95;1.10;;;;;;;10.72;nan;101144.31;5087693;28;20036;-76
2021/05/29 04:35:50;;;;;;;1.85;1.20;;;;;;;10.69;nan;101152.53;5070135;28;20040;-76
2021/05/29 04:38:15;;;;;;;2.08;1.23;;;;;;;10.68;nan;101161.44;5070639;28;20114;-76
2021/05/29 04:40:41;;;;;;;1.38;1.08;;;;;;;10.63;nan;101164.50;5068504;23;20446;-84
2021/05/29 04:43:06;;;;;;;1.85;1.15;;;;;;;10.64;nan;101160.03;5057739;28;20025;-84
2021/05/29 04:45:31;;;;;;;1.25;0.98;;;;;;;10.63;nan;101163.66;5051608;28;20051;-83
2021/05/29 04:47:57;;;;;;;3.45;1.55;;;;;;;10.61;nan;101161.16;5063696;28;20433;-83
2021/05/29 04:50:22;;;;;;;1.58;1.17;;;;;;;10.75;nan;101167.00;5066463;28;20100;-84
2021/05/29 04:52:48;;;;;;;2.38;1.10;;;;;;;10.82;nan;101161.06;5068419;28;20093;-84
2021/05/29 04:55:15;;;;;;;1.92;1.30;;;;;;;10.97;nan;101168.56;5065891;28;20033;-84
2021/05/29 04:57:40;;;;;;;12.88;1.35;;;;;;;11.08;nan;101170.25;5071311;28;20075;-84
2021/05/29 05:00:12;;;;;;;2.78;1.33;;;;;;;11.12;nan;101169.81;5055167;28;20417;-83
2021/05/29 05:02:38;;;;;;;3.58;1.30;;;;;;;11.17;nan;101172.06;5052294;28;20079;-84
2021/05/29 05:05:05;;;;;;;1.58;1.17;;;;;;;11.16;nan;101176.53;5070314;28;20044;-83
2021/05/29 05:07:30;;;;;;;3.35;1.40;;;;;;;11.20;nan;101169.97;5088471;28;20036;-84
2021/05/29 05:09:56;;;;;;;3.05;1.50;;;;;;;11.30;nan;101182.34;5072292;28;20056;-84
2021/05/29 05:12:21;;;;;;;2.05;1.20;;;;;;;11.35;nan;101180.97;5062256;28;20205;-84
2021/05/29 05:14:46;;;;;;;2.58;1.40;;;;;;;11.35;nan;101182.78;5055260;28;20037;-84
2021/05/29 05:17:12;;;;;;;2.22;1.40;;;;;;;11.35;nan;101196.84;5066089;28;20055;-83
2021/05/29 05:19:38;;;;;;;1.58;1.10;;;;;;;11.42;nan;101197.13;5077051;28;20084;-84
2021/05/29 05:22:03;;;;;;;2.47;1.58;;;;;;;11.49;nan;101203.53;5071907;28;20048;-84
2021/05/29 05:24:29;;;;;;;1.90;1.20;;;;;;;11.57;nan;101200.19;5064079;28;20033;-84
2021/05/29 05:26:54;;;;;;;2.30;1.50;;;;;;;11.44;nan;101190.72;5069521;28;20033;-84
2021/05/29 05:29:19;;;;;;;1.83;1.13;;;;;;;11.49;nan;101190.28;5058510;28;20040;-84
2021/05/29 05:31:45;;;;;;;2.53;1.50;;;;;;;11.51;nan;101195.44;5068035;28;20044;-83
2021/05/29 05:34:12;;;;;;;2.28;1.10;;;;;;;11.60;nan;101200.72;5058569;28;20039;-84
2021/05/29 05:36:39;;;;;;;2.92;1.40;;;;;;;11.64;nan;101199.47;5053796;28;20400;-82
2021/05/29 05:39:06;;;;;;;2.83;1.52;;;;;;;11.73;nan;101202.22;5073509;28;20449;-83
2021/05/29 05:41:32;;;;;;;1.85;1.35;;;;;;;11.83;nan;101208.34;5085563;28;20036;-83
2021/05/29 05:43:57;;;;;;;2.30;1.58;;;;;;;12.11;nan;101207.47;5070860;28;20048;-83
2021/05/29 05:46:23;;;;;;;1.90;1.40;;;;;;;12.51;nan;101214.28;5063274;28;20520;-83
2021/05/29 05:48:49;;;;;;;3.78;1.80;;;;;;;12.80;nan;101213.28;5071899;28;20052;-83
2021/05/29 05:51:14;;;;;;;2.88;1.40;;;;;;;13.16;nan;101211.47;5084461;28;20122;-83
2021/05/29 05:53:40;;;;;;;2.58;1.85;;;;;;;13.47;nan;101220.91;5062952;28;20048;-83
2021/05/29 05:56:06;;;;;;;2.97;1.65;;;;;;;13.67;nan;101219.72;5068359;28;20045;-85
2021/05/29 05:58:34;;;;;;;2.97;1.80;;;;;;;13.75;nan;101222.47;5080063;28;20058;-83
2021/05/29 06:01:00;;;;;;;4.07;1.95;;;;;;;14.05;nan;101217.66;5082783;28;20120;-84
2021/05/29 06:03:25;;;;;;;3.45;1.80;;;;;;;14.46;nan;101223.16;5084359;28;20032;-83
2021/05/29 06:05:51;;;;;;;2.83;1.88;;;;;;;14.85;nan;101233.34;5080828;28;20041;-83
2021/05/29 06:08:18;;;;;;;3.80;1.83;;;;;;;15.35;nan;101234.22;5065361;28;20025;-84
2021/05/29 06:10:44;;;;;;;3.38;1.73;;;;;;;15.42;nan;101238.75;5083556;28;20044;-83
2021/05/29 06:13:14;;;;;;;3.10;1.85;;;;;;;15.54;nan;101241.06;5065869;28;20033;-84
2021/05/29 06:20:50;;;;;;;3.58;1.63;;;;;;;16.35;nan;101237.44;5063686;28;20032;-84
2021/05/29 06:23:17;;;;;;;2.67;1.70;;;;;;;16.62;nan;101241.53;5062768;28;20036;-84
2021/05/29 06:25:42;;;;;;;2.25;1.63;;;;;;;16.80;nan;101237.78;5079696;28;20032;-84
2021/05/29 06:28:08;;;;;;;2.40;1.60;;;;;;;17.02;nan;101238.81;5063936;28;20033;-84
2021/05/29 06:30:35;;;;;;;2.15;1.52;;;;;;;17.20;nan;101247.38;5083032;28;20037;-83
2021/05/29 06:33:00;;;;;;;1.90;1.38;;;;;;;17.27;nan;101245.66;5067326;28;20442;-84
2021/05/29 06:35:26;;;;;;;2.75;1.50;;;;;;;17.56;nan;101244.94;5070498;28;20109;-85
2021/05/29 06:37:51;;;;;;;3.63;1.40;;;;;;;17.96;nan;101245.59;5049013;28;20033;-84
2021/05/29 06:40:17;;;;;;;2.17;1.40;;;;;;;18.24;nan;101250.34;5061341;28;20025;-84
2021/05/29 06:42:42;;;;;;;2.08;1.50;;;;;;;18.46;nan;101254.75;5067194;28;20043;-84
2021/05/29 06:45:09;;;;;;;1.90;1.23;;;;;;;18.56;nan;101250.97;5058928;28;20043;-83
2021/05/29 06:47:35;;;;;;;1.65;1.20;;;;;;;18.69;nan;101251.16;5068512;28;20025;-83
2021/05/29 06:50:01;;;;;;;2.70;1.38;;;;;;;19.16;nan;101252.50;5072275;28;20025;-83
2021/05/29 06:52:29;;;;;;;1.60;0.90;;;;;;;19.39;nan;101249.66;5082334;28;20089;-85
2021/05/29 07:00:07;;;;;;;2.20;1.20;;;;;;;20.15;nan;101254.41;5072648;28;20035;-82
2021/05/29 07:02:33;;;;;;;1.95;0.98;;;;;;;20.59;nan;101253.19;5069739;28;20036;-82
2021/05/29 07:04:59;;;;;;;2.60;1.10;;;;;;;20.62;nan;101260.03;5072988;28;20123;-81
2021/05/29 07:07:24;;;;;;;1.38;0.90;;;;;;;20.75;nan;101258.22;5058308;28;20506;-82
2021/05/29 07:09:50;;;;;;;2.35;1.10;;;;;;;20.70;nan;101265.25;5045807;28;20104;-82
2021/05/29 07:12:16;;;;;;;1.15;0.80;;;;;;;20.87;nan;101263.84;5063466;28;20094;-81
2021/05/29 07:14:41;;;;;;;1.40;0.93;;;;;;;20.97;nan;101258.09;5071238;28;20517;-82
2021/05/29 07:17:08;;;;;;;1.50;0.75;;;;;;;20.99;nan;101264.09;5065939;28;20040;-83
2021/05/29 07:19:33;;;;;;;1.88;0.85;;;;;;;21.04;nan;101260.81;5072192;28;20040;-82
2021/05/29 07:21:59;;;;;;;1.88;0.85;;;;;;;21.83;nan;101258.22;5063870;28;20051;-82
2021/05/29 07:24:24;;;;;;;1.92;1.00;;;;;;;21.44;nan;101263.59;5079907;28;20044;-85
2021/05/29 07:26:50;;;;;;;1.35;0.80;;;;;;;21.42;nan;101263.78;5083302;28;20068;-82
2021/05/29 07:29:16;;;;;;;1.25;0.80;;;;;;;21.38;nan;101262.50;5082737;28;20037;-83
2021/05/29 07:31:43;;;;;;;1.70;0.98;;;;;;;21.52;nan;101268.78;5083228;28;20071;-82
2021/05/29 07:34:08;;;;;;;1.23;0.70;;;;;;;22.24;nan;101259.03;5070864;28;20052;-83
2021/05/29 07:36:34;;;;;;;1.92;1.00;;;;;;;22.37;nan;101255.47;5084528;28;20035;-82
2021/05/29 07:39:00;;;;;;;1.48;0.85;;;;;;;22.50;nan;101258.13;5083285;28;20035;-83
2021/05/29 07:41:25;;;;;;;1.75;0.80;;;;;;;22.68;nan;101258.22;5066390;28;20551;-85
2021/05/29 07:43:50;;;;;;;1.25;0.73;;;;;;;22.26;nan;101254.22;5055417;28;20040;-82
2021/05/29 07:46:18;;;;;;;1.85;1.05;;;;;;;22.73;nan;101256.78;5083945;28;20040;-84
2021/05/29 07:48:44;;;;;;;0.93;0.60;;;;;;;22.80;nan;101254.88;5065804;28;20058;-83
2021/05/29 07:51:10;;;;;;;1.20;0.75;;;;;;;23.13;nan;101253.91;5099222;28;20056;-82
2021/05/29 07:53:38;;;;;;;1.10;0.70;;;;;;;22.85;nan;101250.47;5070305;28;20067;-82
2021/05/29 07:56:07;;;;;;;1.45;0.80;;;;;;;22.53;nan;101256.88;5057439;28;20190;-82
2021/05/29 07:58:34;;;;;;;1.73;0.88;;;;;;;23.04;nan;101246.03;5064774;28;20037;-85
2021/05/29 08:00:59;;;;;;;1.02;0.68;;;;;;;23.16;nan;101253.47;5068947;28;20045;-82
2021/05/29 08:03:26;;;;;;;1.10;0.75;;;;;;;23.15;nan;101257.22;5082391;28;20377;-82
2021/05/29 08:05:54;;;;;;;2.05;1.00;;;;;;;23.94;nan;101262.00;5061921;28;20699;-83
2021/05/29 08:08:20;;;;;;;1.65;0.80;;;;;;;23.65;nan;101268.06;5100692;28;20109;-83
2021/05/29 08:10:48;;;;;;;1.65;0.88;;;;;;;23.84;nan;101261.69;5069590;28;20120;-84
2021/05/29 08:13:15;;;;;;;0.98;0.52;;;;;;;24.14;nan;101263.66;5058050;28;20028;-84
2021/05/29 08:15:40;;;;;;;1.30;0.70;;;;;;;24.22;nan;101262.53;5053845;28;20044;-84
2021/05/29 08:18:08;;;;;;;1.30;0.70;;;;;;;24.39;nan;101252.78;5060079;28;20029;-84
2021/05/29 08:20:37;;;;;;;2.20;0.70;;;;;;;24.01;nan;101263.81;5069699;28;20032;-84
2021/05/29 08:23:03;;;;;;;1.33;0.68;;;;;;;24.64;nan;101258.13;5068762;28;20043;-85
2021/05/29 08:25:30;;;;;;;1.40;0.70;;;;;;;25.49;nan;101262.56;5084506;28;20045;-83
2021/05/29 08:27:55;;;;;;;1.00;0.70;;;;;;;25.40;nan;101259.38;5070918;28;20066;-84
2021/05/29 08:30:21;;;;;;;2.72;0.60;;;;;;;25.24;nan;101264.63;5070712;28;20092;-84
2021/05/29 08:32:46;;;;;;;0.65;0.60;;;;;;;25.93;nan;101259.56;5072782;28;20044;-84
2021/05/29 08:35:12;;;;;;;1.33;0.70;;;;;;;26.35;nan;101270.25;5076845;28;20428;-84
2021/05/29 08:37:40;;;;;;;2.08;0.77;;;;;;;25.85;nan;101266.13;5070385;28;20043;-84
2021/05/29 08:40:06;;;;;;;1.10;0.80;;;;;;;23.37;nan;101266.59;5086744;28;20037;-83
2021/05/29 08:42:32;;;;;;;1.10;0.63;;;;;;;23.15;nan;101266.13;5085169;28;20049;-85
2021/05/29 08:44:58;;;;;;;0.75;0.70;;;;;;;22.61;nan;101265.53;5081719;28;20037;-84
2021/05/29 08:47:27;;;;;;;1.13;0.75;;;;;;;23.88;nan;101253.94;5088625;28;20032;-83
2021/05/29 08:49:53;;;;;;;1.45;0.77;;;;;;;24.07;nan;101262.91;5086970;28;20060;-86
2021/05/29 08:52:18;;;;;;;2.08;0.57;;;;;;;24.18;nan;101270.28;5073563;28;20048;-84
2021/05/29 08:54:44;;;;;;;1.42;0.90;;;;;;;24.48;nan;101261.44;5068129;28;20063;-85
2021/05/29 08:57:09;;;;;;;1.35;0.75;;;;;;;24.89;nan;101251.78;5074137;28;20137;-85
2021/05/29 08:59:35;;;;;;;3.70;0.77;;;;;;;25.20;nan;101265.09;5071860;28;20041;-84
2021/05/29 09:02:05;;;;;;;1.38;0.70;;;;;;;25.61;nan;101258.00;5068352;28;20025;-83
2021/05/29 09:04:30;;;;;;;1.75;0.70;;;;;;;25.81;nan;101262.25;5053723;28;20041;-85
2021/05/29 09:06:56;;;;;;;1.88;0.80;;;;;;;25.46;nan;101263.03;5072349;28;20756;-84
2021/05/29 09:09:22;;;;;;;1.75;0.60;;;;;;;24.84;nan;101255.19;5075483;28;20496;-83
2021/05/29 09:11:57;;;;;;;1.15;0.70;;;;;;;23.87;nan;101263.94;5068713;28;20068;-83
2021/05/29 09:14:26;;;;;;;1.85;0.75;;;;;;;23.64;nan;101261.81;5064426;28;20093;-87
2021/05/29 09:17:06;;;;;;;1.48;0.60;;;;;;;23.63;nan;101259.34;5056130;28;20401;-84
2021/05/29 09:20:05;;;;;;;0.93;0.57;;;;;;;22.92;nan;101263.09;5084238;28;20039;-84
2021/05/29 09:22:33;;;;;;;0.65;0.52;;;;;;;22.67;nan;101261.97;5058775;28;20036;-84
2021/05/29 09:25:12;;;;;;;0.93;0.70;;;;;;;22.69;nan;101261.75;5085386;28;20103;-83
2021/05/29 09:27:50;;;;;;;0.95;0.60;;;;;;;22.68;nan;101268.19;5085866;28;20039;-83
2021/05/29 09:30:16;;;;;;;1.05;0.60;;;;;;;22.71;nan;101266.94;5072919;28;20043;-85
2021/05/29 09:32:41;;;;;;;1.95;0.63;;;;;;;22.97;nan;101263.28;5075704;28;20049;-83
2021/05/29 09:35:11;;;;;;;1.58;0.60;;;;;;;23.10;nan;101260.56;5061419;28;20098;-83
2021/05/29 09:37:37;;;;;;;0.85;0.60;;;;;;;23.30;nan;101273.91;5069985;28;20044;-83
2021/05/29 09:40:10;;;;;;;1.65;0.73;;;;;;;23.42;nan;101274.84;5066103;28;20044;-82
2021/05/29 09:42:39;;;;;;;1.05;0.60;;;;;;;23.52;nan;101268.97;5085195;28;20047;-82
2021/05/29 09:45:28;;;;;;;2.00;0.70;;;;;;;23.54;nan;101278.50;5084573;28;20043;-82
2021/05/29 09:48:18;;;;;;;1.17;0.68;;;;;;;22.74;nan;101277.28;5076628;28;20092;-84
2021/05/29 09:50:59;;;;;;;0.85;0.50;;;;;;;22.51;nan;101283.19;5063818;28;20036;-82
2021/05/29 09:53:29;;;;;;;1.50;0.55;;;;;;;22.21;nan;101267.50;5070666;28;20055;-81
2021/05/29 09:55:54;;;;;;;1.20;0.70;;;;;;;22.28;nan;101273.72;5063083;28;20039;-81
2021/05/29 09:58:20;;;;;;;1.75;1.00;;;;;;;22.49;nan;101264.53;5062580;28;20033;-81
2021/05/29 10:00:46;;;;;;;1.30;0.73;;;;;;;22.27;nan;101272.06;5062842;28;20031;-81
2021/05/29 10:03:12;;;;;;;1.80;0.70;;;;;;;;;;5067064;28;20087;-81
2021/05/29 10:05:41;;;;;;;1.63;0.93;;;;;;;22.05;nan;101274.97;5065021;28;20059;-82
2021/05/29 10:08:11;;;;;;;1.52;0.80;;;;;;;21.80;nan;101276.66;5068098;28;20054;-81
2021/05/29 10:10:36;;;;;;;1.05;0.65;;;;;;;21.61;nan;101275.63;5062992;28;20047;-81
2021/05/29 10:13:02;;;;;;;1.02;0.75;;;;;;;21.65;nan;101270.66;5065466;28;20037;-81
2021/05/29 10:15:29;;;;;;;1.27;0.80;;;;;;;21.70;nan;101270.88;5066687;28;20400;-82
2021/05/29 10:17:57;;;;;;;1.30;0.82;;;;;;;21.54;nan;101272.91;5087212;28;20064;-83
2021/05/29 10:20:23;;;;;;;1.90;0.80;;;;;;;21.66;nan;101269.63;5067447;28;20513;-82
2021/05/29 10:22:48;;;;;;;0.88;0.70;;;;;;;21.38;nan;101270.59;5070673;28;20105;-82
2021/05/29 10:25:16;;;;;;;2.63;0.77;;;;;;;21.41;nan;101279.13;5090554;28;20036;-82
2021/05/29 10:27:47;;;;;;;1.10;0.65;;;;;;;20.91;nan;101259.75;5056822;28;20045;-81
2021/05/29 10:30:14;;;;;;;0.65;0.60;;;;;;;20.77;nan;101260.72;5055192;28;20109;-82
2021/05/29 10:32:39;;;;;;;1.02;0.75;;;;;;;21.01;nan;101262.03;5065634;28;20079;-82
2021/05/29 10:35:07;;;;;;;0.75;0.68;;;;;;;21.19;nan;101256.91;5054888;28;20029;-80
2021/05/29 10:37:52;;;;;;;3.08;0.80;;;;;;;21.04;nan;101260.81;5060908;28;20028;-82
2021/05/29 10:40:17;;;;;;;1.15;0.60;;;;;;;21.03;nan;101269.91;5078946;28;20043;-81
2021/05/29 10:42:43;;;;;;;1.60;0.65;;;;;;;21.04;nan;101267.00;5086441;28;20036;-82
2021/05/29 10:45:20;;;;;;;1.85;0.70;;;;;;;20.72;nan;101257.81;5068666;28;20043;-81
2021/05/29 10:48:04;;;;;;;1.92;0.80;;;;;;;20.91;nan;101256.22;5090138;28;20050;-81
2021/05/29 10:53:41;;;;;;;2.00;0.70;;;;;;;20.38;nan;101254.13;5059340;28;20490;-81
2021/05/29 10:56:17;;;;;;;2.10;0.70;;;;;;;19.76;nan;101252.25;5080553;28;20032;-81
2021/05/29 10:58:56;;;;;;;0.82;0.63;;;;;;;20.05;nan;101256.63;5052563;28;20051;-83
2021/05/29 11:01:44;;;;;;;1.20;0.70;;;;;;;20.46;nan;101251.25;5044877;28;20056;-83
2021/05/29 11:04:18;;;;;;;3.85;0.98;;;;;;;20.10;nan;101249.63;5045375;28;20383;-82
2021/05/29 11:06:49;;;;;;;1.63;0.60;;;;;;;20.20;nan;101241.19;5046609;28;20044;-83
2021/05/29 11:09:18;;;;;;;0.98;0.63;;;;;;;20.23;nan;101235.44;5053078;28;20108;-81
2021/05/29 11:14:14;;;;;;;1.73;0.82;;;;;;;20.44;nan;101245.25;5063276;28;20107;-84
2021/05/29 11:16:45;;;;;;;1.08;0.60;;;;;;;20.22;nan;101241.84;5079301;28;20048;-85
2021/05/29 11:19:14;;;;;;;0.75;0.60;;;;;;;20.33;nan;101245.81;5079218;28;20103;-84
2021/05/29 11:22:05;;;;;;;0.90;0.57;;;;;;;20.40;nan;101237.78;5065208;28;20119;-83
2021/05/29 11:24:33;;;;;;;0.63;0.60;;;;;;;20.14;nan;101248.19;5038247;28;20051;-82
2021/05/29 11:26:59;;;;;;;1.70;0.88;;;;;;;20.07;nan;101236.59;5080174;28;20041;-83
2021/05/29 11:29:24;;;;;;;2.28;0.80;;;;;;;20.11;nan;101239.69;5052454;28;20059;-83
2021/05/29 11:31:50;;;;;;;2.35;0.80;;;;;;;20.04;nan;101236.97;5082168;28;20066;-83
2021/05/29 11:34:16;;;;;;;1.23;0.63;;;;;;;20.05;nan;101237.81;5080119;28;20114;-82
2021/05/29 11:36:42;;;;;;;1.08;0.80;;;;;;;20.07;nan;101239.28;5062634;28;20033;-82
2021/05/29 11:39:13;;;;;;;1.42;0.80;;;;;;;20.47;nan;101239.47;5082807;28;20036;-82
2021/05/29 11:41:39;;;;;;;1.45;0.80;;;;;;;20.72;nan;101234.44;5075850;28;20052;-82
2021/05/29 11:44:18;;;;;;;1.05;0.60;;;;;;;20.61;nan;101239.56;5083486;28;20047;-81
2021/05/29 11:46:44;;;;;;;1.30;0.80;;;;;;;20.41;nan;101234.91;5053992;28;20044;-81
2021/05/29 11:49:10;;;;;;;0.82;0.63;;;;;;;20.42;nan;101231.19;5083348;28;20461;-82
2021/05/29 11:51:38;;;;;;;2.17;0.88;;;;;;;20.49;nan;101231.22;5065639;28;20036;-82
2021/05/29 11:54:19;;;;;;;0.88;0.50;;;;;;;20.36;nan;101237.38;5082869;28;20100;-82
2021/05/29 11:56:50;;;;;;;;;;;;;;;20.37;nan;101230.97;5063537;28;20041;-82
2021/05/29 11:59:18;;;;;;;2.10;0.70;;;;;;;20.33;nan;101238.59;5056423;28;19927;-81